createdAt,value
2019-04-04T00:00:36.739Z,9.60
2019-04-04T00:02:40.057Z,9.60
2019-04-04T00:04:46.465Z,9.60
2019-04-04T00:06:49.824Z,9.60
2019-04-04T00:08:53.141Z,9.60
2019-04-04T00:10:58.041Z,9.50
2019-04-04T00:13:01.425Z,9.50
2019-04-04T00:15:06.181Z,9.50
2019-04-04T00:17:09.470Z,9.40
2019-04-04T00:19:12.823Z,9.40
2019-04-04T00:21:16.144Z,9.40
2019-04-04T00:23:19.509Z,9.40
2019-04-04T00:25:22.860Z,9.40
2019-04-04T00:27:26.279Z,9.40
2019-04-04T00:29:29.629Z,9.40
2019-04-04T00:31:32.918Z,9.30
2019-04-04T00:33:36.222Z,9.30
2019-04-04T00:35:39.491Z,9.20
2019-04-04T00:37:42.787Z,9.20
2019-04-04T00:39:46.173Z,9.20
2019-04-04T00:41:49.464Z,9.20
2019-04-04T00:43:52.811Z,9.20
2019-04-04T00:45:56.135Z,9.20
2019-04-04T00:48:02.756Z,9.20
2019-04-04T00:50:06.665Z,9.20
2019-04-04T00:52:10.876Z,9.20
2019-04-04T00:54:14.655Z,9.20
2019-04-04T00:56:18.740Z,9.20
2019-04-04T00:58:22.170Z,9.20
2019-04-04T01:00:25.566Z,9.20
2019-04-04T01:02:28.837Z,9.20
2019-04-04T01:04:32.120Z,9.10
2019-04-04T01:06:35.433Z,9.10
2019-04-04T01:08:39.032Z,9.10
2019-04-04T01:10:42.464Z,9.10
2019-04-04T01:12:45.951Z,9.10
2019-04-04T01:14:49.776Z,9.10
2019-04-04T01:16:53.139Z,9.00
2019-04-04T01:18:59.621Z,9.00
2019-04-04T01:21:02.983Z,9.00
2019-04-04T01:23:09.381Z,9.00
2019-04-04T01:25:12.694Z,8.90
2019-04-04T01:27:15.973Z,9.00
2019-04-04T01:29:19.263Z,9.00
2019-04-04T01:31:22.642Z,8.90
2019-04-04T01:33:25.921Z,9.00
2019-04-04T01:35:29.212Z,8.90
2019-04-04T01:37:33.024Z,9.00
2019-04-04T01:39:36.304Z,8.90
2019-04-04T01:41:39.656Z,8.90
2019-04-04T01:43:42.962Z,8.90
2019-04-04T01:45:46.279Z,8.90
2019-04-04T01:47:49.575Z,8.90
2019-04-04T01:49:52.914Z,8.90
2019-04-04T01:51:57.645Z,8.90
2019-04-04T01:54:01.733Z,8.90
2019-04-04T01:56:07.742Z,8.90
2019-04-04T01:58:11.113Z,8.90
2019-04-04T02:00:15.854Z,8.80
2019-04-04T02:02:19.306Z,8.90
2019-04-04T02:04:24.569Z,8.90
2019-04-04T02:06:28.629Z,8.90
2019-04-04T02:08:32.347Z,8.90
2019-04-04T02:10:35.630Z,8.90
2019-04-04T02:12:41.688Z,8.90
2019-04-04T02:14:45.044Z,8.90
2019-04-04T02:16:51.014Z,8.80
2019-04-04T02:18:56.178Z,8.90
2019-04-04T02:20:59.520Z,8.90
2019-04-04T02:23:02.803Z,8.80
2019-04-04T02:25:07.104Z,8.80
2019-04-04T02:27:10.450Z,8.80
2019-04-04T02:29:13.796Z,8.80
2019-04-04T02:31:20.578Z,8.80
2019-04-04T02:33:22.344Z,8.70
2019-04-04T02:35:25.631Z,8.70
2019-04-04T02:37:29.022Z,8.60
2019-04-04T02:39:32.645Z,8.60
2019-04-04T02:41:56.808Z,8.60
2019-04-04T02:44:04.101Z,8.50
2019-04-04T02:46:11.049Z,8.50
2019-04-04T02:48:12.505Z,8.50
2019-04-04T02:50:16.104Z,8.50
2019-04-04T02:52:19.458Z,8.40
2019-04-04T02:54:24.611Z,8.40
2019-04-04T02:56:27.792Z,8.40
2019-04-04T02:58:31.159Z,8.40
2019-04-04T03:00:37.248Z,8.40
2019-04-04T03:02:40.630Z,8.40
2019-04-04T03:04:46.789Z,8.50
2019-04-04T03:06:48.998Z,8.50
2019-04-04T03:08:52.377Z,8.40
2019-04-04T03:10:55.742Z,8.50
2019-04-04T03:12:59.521Z,8.50
2019-04-04T03:15:02.883Z,8.40
2019-04-04T03:17:06.250Z,8.50
2019-04-04T03:19:10.894Z,8.40
2019-04-04T03:21:22.042Z,8.40
2019-04-04T03:23:22.748Z,8.40
2019-04-04T03:25:26.080Z,8.40
2019-04-04T03:27:29.424Z,8.40
2019-04-04T03:29:37.336Z,8.40
2019-04-04T03:31:42.392Z,8.40
2019-04-04T03:33:45.781Z,8.40
2019-04-04T03:35:49.131Z,8.40
2019-04-04T03:37:52.415Z,8.40
2019-04-04T03:39:55.725Z,8.40
2019-04-04T03:41:59.088Z,8.40
2019-04-04T03:44:05.168Z,8.40
2019-04-04T03:46:08.785Z,8.40
2019-04-04T03:48:17.081Z,8.40
2019-04-04T03:50:17.283Z,8.40
2019-04-04T03:52:20.665Z,8.40
2019-04-04T03:54:26.510Z,8.40
2019-04-04T03:56:49.285Z,8.40
2019-04-04T03:58:52.610Z,8.40
2019-04-04T04:00:56.033Z,8.40
2019-04-04T04:02:59.358Z,8.40
2019-04-04T04:05:03.609Z,8.40
2019-04-04T04:07:06.982Z,8.40
2019-04-04T04:09:10.338Z,8.40
2019-04-04T04:11:13.777Z,8.40
2019-04-04T04:13:17.623Z,8.40
2019-04-04T04:15:20.974Z,8.40
2019-04-04T04:17:24.310Z,8.40
2019-04-04T04:19:30.264Z,8.40
2019-04-04T04:21:52.092Z,8.40
2019-04-04T04:23:57.872Z,8.40
2019-04-04T04:26:08.013Z,8.30
2019-04-04T04:28:09.402Z,8.30
2019-04-04T04:30:12.709Z,8.40
2019-04-04T04:32:15.985Z,8.30
2019-04-04T04:34:19.268Z,8.30
2019-04-04T04:36:25.647Z,8.30
2019-04-04T04:38:28.930Z,8.30
2019-04-04T04:40:32.212Z,8.20
2019-04-04T04:42:35.579Z,8.20
2019-04-04T04:44:39.088Z,8.20
2019-04-04T04:46:42.523Z,8.20
2019-04-04T04:48:48.820Z,8.20
2019-04-04T04:50:52.119Z,8.20
2019-04-04T04:52:55.487Z,8.20
2019-04-04T04:54:59.093Z,8.20
2019-04-04T04:57:03.904Z,8.20
2019-04-04T04:59:07.588Z,8.10
2019-04-04T05:01:10.885Z,8.10
2019-04-04T05:03:14.183Z,8.10
2019-04-04T05:05:17.576Z,8.10
2019-04-04T05:07:20.951Z,8.10
2019-04-04T05:09:28.691Z,8.00
2019-04-04T05:11:32.075Z,8.00
2019-04-04T05:13:35.349Z,8.00
2019-04-04T05:15:42.979Z,8.00
2019-04-04T05:17:46.403Z,8.00
2019-04-04T05:19:50.130Z,8.00
2019-04-04T05:21:54.139Z,8.00
2019-04-04T05:23:57.493Z,7.90
2019-04-04T05:26:03.080Z,7.90
2019-04-04T05:28:06.398Z,7.90
2019-04-04T05:30:09.844Z,7.90
2019-04-04T05:32:13.131Z,7.90
2019-04-04T05:34:19.256Z,7.90
2019-04-04T05:36:22.803Z,7.90
2019-04-04T05:38:26.256Z,7.90
2019-04-04T05:40:32.549Z,7.90
2019-04-04T05:42:35.883Z,7.90
2019-04-04T05:44:43.989Z,7.90
2019-04-04T05:46:47.390Z,7.80
2019-04-04T05:48:50.725Z,7.80
2019-04-04T05:50:54.046Z,7.90
2019-04-04T05:53:03.887Z,7.80
2019-04-04T05:55:05.462Z,7.80
2019-04-04T05:57:08.809Z,7.80
2019-04-04T05:59:12.215Z,7.80
2019-04-04T06:03:42.533Z,7.80
2019-04-04T06:05:45.986Z,7.80
2019-04-04T06:07:49.343Z,7.80
2019-04-04T06:09:52.735Z,7.80
2019-04-04T06:11:56.057Z,7.80
2019-04-04T06:13:59.676Z,7.80
2019-04-04T06:16:04.222Z,7.90
2019-04-04T06:18:11.907Z,7.90
2019-04-04T06:20:15.669Z,7.90
2019-04-04T06:22:20.947Z,7.90
2019-04-04T06:24:25.233Z,8.00
2019-04-04T06:26:29.071Z,8.00
2019-04-04T06:28:32.464Z,8.00
2019-04-04T06:30:43.218Z,8.00
2019-04-04T06:32:40.885Z,8.00
2019-04-04T06:34:44.823Z,8.00
2019-04-04T06:36:49.051Z,8.00
2019-04-04T06:38:53.952Z,8.00
2019-04-04T06:40:58.876Z,8.00
2019-04-04T06:43:03.977Z,8.00
2019-04-04T06:45:07.613Z,8.00
2019-04-04T06:47:10.902Z,8.00
2019-04-04T06:49:14.227Z,8.00
2019-04-04T06:51:17.563Z,8.00
2019-04-04T06:53:22.280Z,8.00
2019-04-04T06:55:28.326Z,8.00
2019-04-04T06:57:31.209Z,8.00
2019-04-04T06:59:34.794Z,8.00
2019-04-04T07:01:38.411Z,8.00
2019-04-04T07:03:41.801Z,8.00
2019-04-04T07:05:45.081Z,8.00
2019-04-04T07:07:48.440Z,8.00
2019-04-04T07:09:51.750Z,8.10
2019-04-04T07:11:55.428Z,8.00
2019-04-04T07:13:59.193Z,8.10
2019-04-04T07:16:07.975Z,8.10
2019-04-04T07:18:12.298Z,8.10
2019-04-04T07:20:17.130Z,8.10
2019-04-04T07:22:24.598Z,8.10
2019-04-04T07:24:29.005Z,8.10
2019-04-04T07:26:46.113Z,8.10
2019-04-04T07:29:01.683Z,8.00
2019-04-04T07:31:04.986Z,8.10
2019-04-04T07:33:12.679Z,8.10
2019-04-04T07:35:17.176Z,8.10
2019-04-04T07:37:22.146Z,8.10
2019-04-04T07:39:26.153Z,8.10
2019-04-04T07:41:29.469Z,8.10
2019-04-04T07:43:32.764Z,8.20
2019-04-04T07:45:36.116Z,8.20
2019-04-04T07:47:39.553Z,8.20
2019-04-04T07:49:42.893Z,8.20
2019-04-04T07:51:48.905Z,8.30
2019-04-04T07:53:54.909Z,8.30
2019-04-04T07:56:01.294Z,8.40
2019-04-04T07:58:23.998Z,8.40
2019-04-04T08:00:27.414Z,8.40
2019-04-04T08:02:30.809Z,8.50
2019-04-04T08:04:34.103Z,8.50
2019-04-04T08:06:37.459Z,8.50
2019-04-04T08:08:40.760Z,8.50
2019-04-04T08:10:46.683Z,8.60
2019-04-04T08:12:50.123Z,8.60
2019-04-04T08:14:53.483Z,8.50
2019-04-04T08:16:56.884Z,8.60
2019-04-04T08:19:00.221Z,8.60
2019-04-04T08:21:05.741Z,8.60
2019-04-04T08:23:08.542Z,8.70
2019-04-04T08:25:11.829Z,8.70
2019-04-04T08:27:15.117Z,8.70
2019-04-04T08:29:18.435Z,8.70
2019-04-04T08:31:21.719Z,8.70
2019-04-04T08:33:25.076Z,8.70
2019-04-04T08:35:32.901Z,8.70
2019-04-04T08:37:36.257Z,8.70
2019-04-04T08:39:39.531Z,8.70
2019-04-04T08:41:42.877Z,8.70
2019-04-04T08:43:46.163Z,8.80
2019-04-04T08:45:49.465Z,8.70
2019-04-04T08:47:52.779Z,8.80
2019-04-04T08:49:56.071Z,8.80
2019-04-04T08:52:02.152Z,8.80
2019-04-04T08:54:05.591Z,8.80
2019-04-04T08:56:08.940Z,8.80
2019-04-04T08:58:12.290Z,8.80
2019-04-04T09:00:15.767Z,8.90
2019-04-04T09:02:19.079Z,8.90
2019-04-04T09:04:24.090Z,8.90
2019-04-04T09:06:27.406Z,8.90
2019-04-04T09:08:31.586Z,8.90
2019-04-04T09:10:38.177Z,8.90
2019-04-04T09:12:41.556Z,8.90
2019-04-04T09:14:44.838Z,8.90
2019-04-04T09:16:48.220Z,9.00
2019-04-04T09:18:51.510Z,8.90
2019-04-04T09:20:58.158Z,9.00
2019-04-04T09:23:01.470Z,9.00
2019-04-04T09:25:10.679Z,9.10
2019-04-04T09:27:14.147Z,9.10
2019-04-04T09:29:17.470Z,9.10
2019-04-04T09:31:20.822Z,9.20
2019-04-04T09:33:24.180Z,9.20
2019-04-04T09:35:27.590Z,9.20
2019-04-04T09:37:30.890Z,9.30
2019-04-04T09:39:34.256Z,9.30
2019-04-04T09:41:37.646Z,9.40
2019-04-04T09:43:40.990Z,9.40
2019-04-04T09:45:44.276Z,9.50
2019-04-04T09:47:47.784Z,9.50
2019-04-04T09:49:51.057Z,9.60
2019-04-04T09:51:54.345Z,9.60
2019-04-04T09:53:57.654Z,9.70
2019-04-04T09:56:00.931Z,9.70
2019-04-04T09:58:04.281Z,9.80
2019-04-04T10:00:14.395Z,9.90
2019-04-04T10:02:17.683Z,9.90
2019-04-04T10:04:20.962Z,10.00
2019-04-04T10:06:24.360Z,10.00
2019-04-04T10:08:27.655Z,10.10
2019-04-04T10:10:30.928Z,10.10
2019-04-04T10:12:36.998Z,10.20
2019-04-04T10:14:40.364Z,10.30
2019-04-04T10:16:43.648Z,10.30
2019-04-04T10:18:46.948Z,10.30
2019-04-04T10:20:53.404Z,10.40
2019-04-04T10:22:56.691Z,10.40
2019-04-04T10:25:00.196Z,10.40
2019-04-04T10:27:03.476Z,10.50
2019-04-04T10:29:06.752Z,10.50
2019-04-04T10:31:10.136Z,10.50
2019-04-04T10:33:13.432Z,10.50
2019-04-04T10:35:16.784Z,10.50
2019-04-04T10:37:20.176Z,10.60
2019-04-04T10:39:29.351Z,10.60
2019-04-04T10:41:28.462Z,10.60
2019-04-04T10:43:34.584Z,10.60
2019-04-04T10:45:37.862Z,10.70
2019-04-04T10:47:41.208Z,10.70
2019-04-04T10:49:47.559Z,10.70
2019-04-04T10:51:50.840Z,10.70
2019-04-04T10:53:57.333Z,10.70
2019-04-04T10:56:00.686Z,10.80
2019-04-04T10:58:03.974Z,10.80
2019-04-04T11:00:08.920Z,10.90
2019-04-04T11:02:31.648Z,10.90
2019-04-04T11:04:37.862Z,10.90
2019-04-04T11:06:41.176Z,11.00
2019-04-04T11:08:44.834Z,10.90
2019-04-04T11:10:48.213Z,11.00
2019-04-04T11:12:51.494Z,11.00
2019-04-04T11:14:54.778Z,11.10
2019-04-04T11:16:58.386Z,11.10
2019-04-04T11:19:01.739Z,11.10
2019-04-04T11:21:05.096Z,11.10
2019-04-04T11:23:08.503Z,11.20
2019-04-04T11:25:11.805Z,11.20
2019-04-04T11:27:17.495Z,11.20
2019-04-04T11:29:20.166Z,11.20
2019-04-04T11:31:23.460Z,11.30
2019-04-04T11:33:26.733Z,11.30
2019-04-04T11:35:30.149Z,11.30
2019-04-04T11:37:33.581Z,11.40
2019-04-04T11:39:36.924Z,11.40
2019-04-04T11:41:40.276Z,11.40
2019-04-04T11:43:46.291Z,11.40
2019-04-04T11:45:49.586Z,11.40
2019-04-04T11:47:52.908Z,11.40
2019-04-04T11:49:56.218Z,11.50
2019-04-04T11:52:02.660Z,11.50
2019-04-04T11:54:06.020Z,11.50
2019-04-04T11:56:09.285Z,11.60
2019-04-04T11:58:15.617Z,11.60
2019-04-04T12:00:26.764Z,11.60
2019-04-04T12:02:32.560Z,11.60
2019-04-04T12:04:35.133Z,11.60
2019-04-04T12:06:38.505Z,11.70
2019-04-04T12:08:41.779Z,11.70
2019-04-04T12:10:45.063Z,11.70
2019-04-04T12:12:48.442Z,11.70
2019-04-04T12:14:51.726Z,11.70
2019-04-04T12:16:58.231Z,11.70
2019-04-04T12:19:01.628Z,11.70
2019-04-04T12:21:04.905Z,11.80
2019-04-04T12:23:08.183Z,11.80
2019-04-04T12:25:11.499Z,11.80
2019-04-04T12:27:14.853Z,11.90
2019-04-04T12:29:18.138Z,11.90
2019-04-04T12:31:21.502Z,12.00
2019-04-04T12:33:27.869Z,12.00
2019-04-04T12:35:31.227Z,12.00
2019-04-04T12:37:34.545Z,12.00
2019-04-04T12:39:37.826Z,12.00
2019-04-04T12:41:41.099Z,12.00
2019-04-04T12:43:47.189Z,12.00
2019-04-04T12:45:50.470Z,12.00
2019-04-04T12:47:53.836Z,12.00
2019-04-04T12:49:57.266Z,12.00
2019-04-04T12:52:00.653Z,12.00
2019-04-04T12:54:03.987Z,12.00
2019-04-04T12:56:07.383Z,12.00
2019-04-04T12:58:11.475Z,12.00
2019-04-04T13:00:14.874Z,12.00
2019-04-04T13:02:18.292Z,12.00
2019-04-04T13:04:31.129Z,12.00
2019-04-04T13:06:42.271Z,12.00
2019-04-04T13:08:45.570Z,12.10
2019-04-04T13:10:48.929Z,12.10
2019-04-04T13:12:55.195Z,12.10
2019-04-04T13:14:58.529Z,12.10
2019-04-04T13:17:01.799Z,12.10
2019-04-04T13:19:07.807Z,12.10
2019-04-04T13:21:11.116Z,12.10
2019-04-04T13:23:14.411Z,12.10
2019-04-04T13:25:17.761Z,12.10
2019-04-04T13:27:21.061Z,12.20
2019-04-04T13:29:24.343Z,12.20
2019-04-04T13:31:27.624Z,12.20
2019-04-04T13:33:31.013Z,12.20
2019-04-04T13:35:37.679Z,12.30
2019-04-04T13:37:39.318Z,12.30
2019-04-04T13:39:42.718Z,12.40
2019-04-04T13:41:46.081Z,12.40
2019-04-04T13:43:49.372Z,12.40
2019-04-04T13:45:52.767Z,12.40
2019-04-04T13:47:56.109Z,12.50
2019-04-04T13:50:02.503Z,12.50
2019-04-04T13:52:11.697Z,12.50
2019-04-04T13:54:14.932Z,12.60
2019-04-04T13:56:18.215Z,12.60
2019-04-04T13:58:22.314Z,12.60
2019-04-04T14:00:26.291Z,12.60
2019-04-04T14:02:29.555Z,12.60
2019-04-04T14:04:36.194Z,12.70
2019-04-04T14:06:39.551Z,12.60
2019-04-04T14:08:45.631Z,12.70
2019-04-04T14:10:57.633Z,12.70
2019-04-04T14:12:52.959Z,12.60
2019-04-04T14:14:56.313Z,12.70
2019-04-04T14:16:59.625Z,12.60
2019-04-04T14:19:02.898Z,12.60
2019-04-04T14:21:06.171Z,12.60
2019-04-04T14:23:09.934Z,12.60
2019-04-04T14:25:16.041Z,12.60
2019-04-04T14:27:19.339Z,12.60
2019-04-04T14:29:27.595Z,12.60
2019-04-04T14:31:34.883Z,12.60
2019-04-04T14:33:38.245Z,12.60
2019-04-04T14:35:41.714Z,12.60
2019-04-04T14:37:45.043Z,12.60
2019-04-04T14:39:48.392Z,12.60
2019-04-04T14:41:51.673Z,12.60
2019-04-04T14:43:54.992Z,12.60
2019-04-04T14:45:58.275Z,12.60
2019-04-04T14:48:01.625Z,12.60
2019-04-04T14:50:07.859Z,12.60
2019-04-04T14:52:13.947Z,12.60
2019-04-04T14:54:17.288Z,12.60
2019-04-04T14:56:20.624Z,12.60
2019-04-04T14:58:23.988Z,12.60
2019-04-04T15:00:27.355Z,12.60
2019-04-04T15:02:30.728Z,12.70
2019-04-04T15:04:34.036Z,12.70
2019-04-04T15:06:37.326Z,12.70
2019-04-04T15:08:40.632Z,12.70
2019-04-04T15:10:43.937Z,12.70
2019-04-04T15:12:47.221Z,12.80
2019-04-04T15:14:50.539Z,12.80
2019-04-04T15:16:53.897Z,12.90
2019-04-04T15:18:57.257Z,12.90
2019-04-04T15:21:00.631Z,13.00
2019-04-04T15:23:04.008Z,13.00
2019-04-04T15:25:09.937Z,13.00
2019-04-04T15:27:16.532Z,13.00
2019-04-04T15:29:19.872Z,13.00
2019-04-04T15:31:23.169Z,13.10
2019-04-04T15:33:26.558Z,13.10
2019-04-04T15:35:29.903Z,13.10
2019-04-04T15:37:33.171Z,13.10
2019-04-04T15:39:36.524Z,13.10
2019-04-04T15:41:42.800Z,13.10
2019-04-04T15:43:46.169Z,13.10
2019-04-04T15:45:49.538Z,13.10
2019-04-04T15:47:52.878Z,13.10
2019-04-04T15:49:57.054Z,13.00
2019-04-04T15:52:00.399Z,13.00
2019-04-04T15:54:03.759Z,13.00
2019-04-04T15:56:07.155Z,13.00
2019-04-04T15:58:10.436Z,13.00
2019-04-04T16:00:13.804Z,13.00
2019-04-04T16:02:17.107Z,12.90
2019-04-04T16:04:20.384Z,12.90
2019-04-04T16:06:23.758Z,12.90
2019-04-04T16:08:27.062Z,12.90
2019-04-04T16:10:30.350Z,12.80
2019-04-04T16:12:33.710Z,12.80
2019-04-04T16:14:37.024Z,12.80
2019-04-04T16:16:44.810Z,12.80
2019-04-04T16:18:48.098Z,12.80
2019-04-04T16:20:51.415Z,12.70
2019-04-04T16:22:54.707Z,12.80
2019-04-04T16:24:58.062Z,12.80
2019-04-04T16:27:01.374Z,12.80
2019-04-04T16:29:04.732Z,12.80
2019-04-04T16:31:11.170Z,12.70
2019-04-04T16:33:14.460Z,12.70
2019-04-04T16:35:37.207Z,12.70
2019-04-04T16:37:40.614Z,12.70
2019-04-04T16:39:46.827Z,12.70
2019-04-04T16:42:01.717Z,12.80
2019-04-04T16:43:55.204Z,12.80
2019-04-04T16:45:58.622Z,12.80
2019-04-04T16:48:01.950Z,12.80
2019-04-04T16:50:08.334Z,12.80
2019-04-04T16:52:11.685Z,12.80
2019-04-04T16:54:15.025Z,12.80
2019-04-04T16:56:18.387Z,12.80
2019-04-04T16:58:24.604Z,12.80
2019-04-04T17:00:30.909Z,12.80
2019-04-04T17:02:37.030Z,12.80
2019-04-04T17:04:40.310Z,12.80
2019-04-04T17:06:43.618Z,12.80
2019-04-04T17:08:46.966Z,12.70
2019-04-04T17:10:50.241Z,12.80
2019-04-04T17:12:53.594Z,12.70
2019-04-04T17:14:56.878Z,12.70
2019-04-04T17:17:00.565Z,12.70
2019-04-04T17:19:04.026Z,12.70
2019-04-04T17:21:07.309Z,12.60
2019-04-04T17:23:10.582Z,12.60
2019-04-04T17:25:16.063Z,12.60
2019-04-04T17:27:21.922Z,12.60
2019-04-04T17:29:25.266Z,12.50
2019-04-04T17:31:28.599Z,12.50
2019-04-04T17:33:32.261Z,12.50
2019-04-04T17:35:38.572Z,12.50
2019-04-04T17:37:42.761Z,12.50
2019-04-04T17:39:49.280Z,12.40
2019-04-04T17:41:55.655Z,12.40
2019-04-04T17:43:59.154Z,12.40
2019-04-04T17:46:02.504Z,12.30
2019-04-04T17:48:06.059Z,12.30
2019-04-04T17:50:12.108Z,12.30
2019-04-04T17:52:15.426Z,12.30
2019-04-04T17:54:18.752Z,12.20
2019-04-04T17:56:22.438Z,12.20
2019-04-04T17:58:25.741Z,12.20
2019-04-04T18:00:29.866Z,12.10
2019-04-04T18:02:33.614Z,12.10
2019-04-04T18:04:47.816Z,12.10
2019-04-04T18:06:42.034Z,12.10
2019-04-04T18:08:45.348Z,12.10
2019-04-04T18:10:48.634Z,12.10
2019-04-04T18:12:51.926Z,12.00
2019-04-04T18:14:56.646Z,12.00
2019-04-04T18:17:00.176Z,12.00
2019-04-04T18:19:03.470Z,12.00
2019-04-04T18:21:06.862Z,12.00
2019-04-04T18:23:10.147Z,12.00
2019-04-04T18:25:13.432Z,12.00
2019-04-04T18:27:16.823Z,12.00
2019-04-04T18:29:20.101Z,12.00
2019-04-04T18:31:23.466Z,11.90
2019-04-04T18:33:28.703Z,11.90
2019-04-04T18:35:32.442Z,11.90
2019-04-04T18:37:36.020Z,12.00
2019-04-04T18:39:39.322Z,11.90
2019-04-04T18:41:42.622Z,11.90
2019-04-04T18:43:45.976Z,11.90
2019-04-04T18:45:49.314Z,11.80
2019-04-04T18:47:52.672Z,11.90
2019-04-04T18:49:55.964Z,11.80
2019-04-04T18:51:59.344Z,11.90
2019-04-04T18:54:02.632Z,11.80
2019-04-04T18:56:08.890Z,11.80
2019-04-04T18:58:14.978Z,11.80
2019-04-04T19:00:18.262Z,11.70
2019-04-04T19:02:21.619Z,11.70
2019-04-04T19:04:24.949Z,11.70
2019-04-04T19:06:28.241Z,11.70
2019-04-04T19:08:31.516Z,11.60
2019-04-04T19:10:37.590Z,11.60
2019-04-04T19:12:40.868Z,11.60
2019-04-04T19:14:44.178Z,11.60
2019-04-04T19:16:47.472Z,11.60
2019-04-04T19:18:50.761Z,11.50
2019-04-04T19:20:54.190Z,11.50
2019-04-04T19:22:57.473Z,11.50
2019-04-04T19:25:00.823Z,11.50
2019-04-04T19:27:04.217Z,11.50
2019-04-04T19:29:07.591Z,11.50
2019-04-04T19:31:11.185Z,11.50
2019-04-04T19:33:14.549Z,11.40
2019-04-04T19:35:17.825Z,11.40
2019-04-04T19:37:21.126Z,11.40
2019-04-04T19:39:24.644Z,11.40
2019-04-04T19:41:27.927Z,11.40
2019-04-04T19:43:35.805Z,11.30
2019-04-04T19:45:39.118Z,11.30
2019-04-04T19:47:42.401Z,11.30
2019-04-04T19:49:45.696Z,11.30
2019-04-04T19:51:49.018Z,11.30
2019-04-04T19:53:52.412Z,11.30
2019-04-04T19:55:55.846Z,11.20
2019-04-04T19:57:59.179Z,11.20
2019-04-04T20:00:02.901Z,11.20
2019-04-04T20:02:06.206Z,11.20
2019-04-04T20:04:09.599Z,11.20
2019-04-04T20:06:12.893Z,11.10
2019-04-04T20:08:19.317Z,11.20
2019-04-04T20:10:22.647Z,11.10
2019-04-04T20:12:26.006Z,11.10
2019-04-04T20:14:29.372Z,11.10
2019-04-04T20:16:33.245Z,11.10
2019-04-04T20:18:36.586Z,11.00
2019-04-04T20:20:39.933Z,11.00
2019-04-04T20:22:43.301Z,11.00
2019-04-04T20:24:46.583Z,11.00
2019-04-04T20:26:49.860Z,11.00
2019-04-04T20:28:53.177Z,11.00
2019-04-04T20:30:56.605Z,11.00
2019-04-04T20:32:59.952Z,10.90
2019-04-04T20:35:04.021Z,10.90
2019-04-04T20:37:07.313Z,10.90
2019-04-04T20:39:12.371Z,10.90
2019-04-04T20:41:16.581Z,10.90
2019-04-04T20:43:20.119Z,10.90
2019-04-04T20:45:23.395Z,10.80
2019-04-04T20:47:29.475Z,10.80
2019-04-04T20:49:32.833Z,10.90
2019-04-04T20:51:36.127Z,10.90
2019-04-04T20:53:39.501Z,10.90
2019-04-04T20:55:42.798Z,10.90
2019-04-04T20:57:46.155Z,10.80
2019-04-04T20:59:49.543Z,10.80
2019-04-04T21:01:53.088Z,10.80
2019-04-04T21:03:56.411Z,10.80
2019-04-04T21:05:59.712Z,10.90
2019-04-04T21:08:02.993Z,10.80
2019-04-04T21:10:09.314Z,10.80
2019-04-04T21:12:12.598Z,10.80
2019-04-04T21:14:15.879Z,10.80
2019-04-04T21:16:19.175Z,10.80
2019-04-04T21:18:22.466Z,10.80
2019-04-04T21:20:25.753Z,10.80
2019-04-04T21:22:29.066Z,10.80
2019-04-04T21:24:32.341Z,10.80
2019-04-04T21:26:35.624Z,10.70
2019-04-04T21:28:39.023Z,10.70
2019-04-04T21:30:42.381Z,10.70
2019-04-04T21:32:45.657Z,10.70
2019-04-04T21:34:48.968Z,10.70
2019-04-04T21:36:52.322Z,10.70
2019-04-04T21:38:55.682Z,10.70
2019-04-04T21:40:59.010Z,10.70
2019-04-04T21:43:02.297Z,10.70
2019-04-04T21:45:09.046Z,10.60
2019-04-04T21:47:12.357Z,10.60
2019-04-04T21:49:15.642Z,10.60
2019-04-04T21:51:19.007Z,10.60
2019-04-04T21:53:22.313Z,10.60
2019-04-04T21:55:25.612Z,10.60
2019-04-04T21:57:28.967Z,10.60
2019-04-04T21:59:32.292Z,10.60
2019-04-04T22:01:35.571Z,10.50
2019-04-04T22:03:38.862Z,10.50
2019-04-04T22:05:42.326Z,10.50
2019-04-04T22:07:45.932Z,10.50
2019-04-04T22:09:49.279Z,10.50
2019-04-04T22:11:52.747Z,10.50
2019-04-04T22:13:56.032Z,10.50
2019-04-04T22:15:59.321Z,10.50
2019-04-04T22:18:05.643Z,10.50
2019-04-04T22:20:09.805Z,10.50
2019-04-04T22:22:13.094Z,10.50
2019-04-04T22:24:16.418Z,10.50
2019-04-04T22:26:39.156Z,10.50
2019-04-04T22:28:42.509Z,10.50
2019-04-04T22:30:45.852Z,10.50
2019-04-04T22:32:52.012Z,10.50
2019-04-04T22:34:55.304Z,10.40
2019-04-04T22:36:58.628Z,10.40
2019-04-04T22:39:04.962Z,10.40
2019-04-04T22:41:08.246Z,10.40
2019-04-04T22:43:11.569Z,10.40
2019-04-04T22:45:17.780Z,10.40
2019-04-04T22:47:21.068Z,10.40
2019-04-04T22:49:24.400Z,10.40
2019-04-04T22:51:28.023Z,10.30
2019-04-04T22:53:31.376Z,10.30
2019-04-04T22:55:34.693Z,10.30
2019-04-04T22:57:37.976Z,10.30
2019-04-04T22:59:41.269Z,10.30
2019-04-04T23:01:44.675Z,10.30
2019-04-04T23:03:48.054Z,10.30
2019-04-04T23:05:51.342Z,10.30
2019-04-04T23:07:56.283Z,10.30
2019-04-04T23:09:59.574Z,10.30
2019-04-04T23:12:02.931Z,10.30
2019-04-04T23:14:06.910Z,10.30
2019-04-04T23:16:10.222Z,10.30
2019-04-04T23:18:13.504Z,10.30
2019-04-04T23:20:16.820Z,10.30
2019-04-04T23:22:20.102Z,10.30
2019-04-04T23:24:23.404Z,10.20
2019-04-04T23:26:26.807Z,10.20
2019-04-04T23:28:30.172Z,10.30
2019-04-04T23:30:33.466Z,10.20
2019-04-04T23:32:36.812Z,10.20
2019-04-04T23:34:40.173Z,10.20
2019-04-04T23:36:43.991Z,10.20
2019-04-04T23:38:47.377Z,10.20
2019-04-04T23:40:50.669Z,10.20
2019-04-04T23:42:54.032Z,10.20
2019-04-04T23:45:01.255Z,10.10
2019-04-04T23:47:02.431Z,10.10
2019-04-04T23:49:05.713Z,10.10
2019-04-04T23:51:09.030Z,10.10
2019-04-04T23:53:12.407Z,10.10
2019-04-04T23:55:18.483Z,10.10
2019-04-04T23:57:25.174Z,10.10
2019-04-04T23:59:28.573Z,10.00
